sensor_id;sensor_type;location;lat;lon;timestamp;temperature;humidity
35497;DHT22;21609;49.298;6.844;2023-02-15T00:01:25;17.00;52.10
35497;DHT22;21609;49.298;6.844;2023-02-15T00:03:50;17.00;52.10
35497;DHT22;21609;49.298;6.844;2023-02-15T00:06:16;17.00;52.10
35497;DHT22;21609;49.298;6.844;2023-02-15T00:08:42;17.00;52.10
35497;DHT22;21609;49.298;6.844;2023-02-15T00:11:09;17.00;52.20
35497;DHT22;21609;49.298;6.844;2023-02-15T00:13:36;17.00;52.10
35497;DHT22;21609;49.298;6.844;2023-02-15T00:16:06;17.00;52.10
35497;DHT22;21609;49.298;6.844;2023-02-15T00:18:32;17.00;52.10
35497;DHT22;21609;49.298;6.844;2023-02-15T00:20:58;17.00;52.10
35497;DHT22;21609;49.298;6.844;2023-02-15T00:23:25;17.00;52.10
35497;DHT22;21609;49.298;6.844;2023-02-15T00:25:51;16.90;52.10
35497;DHT22;21609;49.298;6.844;2023-02-15T00:28:16;16.90;52.10
35497;DHT22;21609;49.298;6.844;2023-02-15T00:30:42;17.00;52.10
35497;DHT22;21609;49.298;6.844;2023-02-15T00:33:07;17.00;52.70
35497;DHT22;21609;49.298;6.844;2023-02-15T00:35:33;16.90;52.10
35497;DHT22;21609;49.298;6.844;2023-02-15T00:37:58;16.90;52.10
35497;DHT22;21609;49.298;6.844;2023-02-15T00:40:24;16.90;52.10
35497;DHT22;21609;49.298;6.844;2023-02-15T00:42:49;16.90;52.10
35497;DHT22;21609;49.298;6.844;2023-02-15T00:45:15;16.90;52.10
35497;DHT22;21609;49.298;6.844;2023-02-15T00:47:41;16.90;52.10
35497;DHT22;21609;49.298;6.844;2023-02-15T00:50:06;16.90;52.10
35497;DHT22;21609;49.298;6.844;2023-02-15T00:52:32;16.90;52.20
35497;DHT22;21609;49.298;6.844;2023-02-15T00:54:57;16.90;52.10
35497;DHT22;21609;49.298;6.844;2023-02-15T00:57:23;16.90;52.10
35497;DHT22;21609;49.298;6.844;2023-02-15T00:59:49;16.90;52.20
35497;DHT22;21609;49.298;6.844;2023-02-15T01:02:15;16.90;52.20
35497;DHT22;21609;49.298;6.844;2023-02-15T01:04:40;16.90;52.10
35497;DHT22;21609;49.298;6.844;2023-02-15T01:07:06;16.80;52.10
35497;DHT22;21609;49.298;6.844;2023-02-15T01:09:31;16.90;52.10
35497;DHT22;21609;49.298;6.844;2023-02-15T01:11:57;16.90;52.10
35497;DHT22;21609;49.298;6.844;2023-02-15T01:14:22;16.80;52.10
35497;DHT22;21609;49.298;6.844;2023-02-15T01:16:48;16.90;52.10
35497;DHT22;21609;49.298;6.844;2023-02-15T01:19:13;16.80;52.10
35497;DHT22;21609;49.298;6.844;2023-02-15T01:21:39;16.80;52.00
35497;DHT22;21609;49.298;6.844;2023-02-15T01:24:13;16.80;52.10
35497;DHT22;21609;49.298;6.844;2023-02-15T01:26:39;16.80;52.10
35497;DHT22;21609;49.298;6.844;2023-02-15T01:29:05;16.80;52.10
35497;DHT22;21609;49.298;6.844;2023-02-15T01:31:30;16.80;52.10
35497;DHT22;21609;49.298;6.844;2023-02-15T01:33:56;16.80;52.20
35497;DHT22;21609;49.298;6.844;2023-02-15T01:36:21;16.80;52.10
35497;DHT22;21609;49.298;6.844;2023-02-15T01:38:47;16.80;52.10
35497;DHT22;21609;49.298;6.844;2023-02-15T01:41:13;16.80;52.10
35497;DHT22;21609;49.298;6.844;2023-02-15T01:43:57;16.80;52.10
35497;DHT22;21609;49.298;6.844;2023-02-15T01:46:39;16.80;52.10
35497;DHT22;21609;49.298;6.844;2023-02-15T01:49:13;16.80;52.10
35497;DHT22;21609;49.298;6.844;2023-02-15T01:51:42;16.80;52.20
35497;DHT22;21609;49.298;6.844;2023-02-15T01:56:41;16.70;52.10
35497;DHT22;21609;49.298;6.844;2023-02-15T01:59:11;16.70;52.10
35497;DHT22;21609;49.298;6.844;2023-02-15T02:01:38;16.70;52.10
35497;DHT22;21609;49.298;6.844;2023-02-15T02:04:46;16.70;52.10
35497;DHT22;21609;49.298;6.844;2023-02-15T02:07:03;16.70;52.10
35497;DHT22;21609;49.298;6.844;2023-02-15T02:09:30;16.70;52.10
35497;DHT22;21609;49.298;6.844;2023-02-15T02:11:55;16.70;52.10
35497;DHT22;21609;49.298;6.844;2023-02-15T02:14:22;16.70;52.10
35497;DHT22;21609;49.298;6.844;2023-02-15T02:17:05;16.70;52.10
35497;DHT22;21609;49.298;6.844;2023-02-15T02:22:49;16.70;52.10
35497;DHT22;21609;49.298;6.844;2023-02-15T02:25:39;16.70;52.20
35497;DHT22;21609;49.298;6.844;2023-02-15T02:36:55;16.70;52.20
35497;DHT22;21609;49.298;6.844;2023-02-15T02:39:33;16.60;52.10
35497;DHT22;21609;49.298;6.844;2023-02-15T02:42:05;16.60;52.00
35497;DHT22;21609;49.298;6.844;2023-02-15T02:44:42;16.60;52.00
35497;DHT22;21609;49.298;6.844;2023-02-15T02:47:10;16.60;52.10
35497;DHT22;21609;49.298;6.844;2023-02-15T02:49:40;16.60;52.00
35497;DHT22;21609;49.298;6.844;2023-02-15T02:52:58;16.60;52.10
35497;DHT22;21609;49.298;6.844;2023-02-15T02:55:27;16.60;52.10
35497;DHT22;21609;49.298;6.844;2023-02-15T02:58:10;16.60;52.10
35497;DHT22;21609;49.298;6.844;2023-02-15T03:00:45;16.60;52.10
35497;DHT22;21609;49.298;6.844;2023-02-15T03:03:15;16.60;52.10
35497;DHT22;21609;49.298;6.844;2023-02-15T03:05:46;16.60;52.10
35497;DHT22;21609;49.298;6.844;2023-02-15T03:08:14;16.60;52.10
35497;DHT22;21609;49.298;6.844;2023-02-15T03:10:48;16.60;52.10
35497;DHT22;21609;49.298;6.844;2023-02-15T03:13:14;16.60;52.20
35497;DHT22;21609;49.298;6.844;2023-02-15T03:15:42;16.60;52.10
35497;DHT22;21609;49.298;6.844;2023-02-15T03:18:32;16.60;52.20
35497;DHT22;21609;49.298;6.844;2023-02-15T03:21:01;16.60;52.20
35497;DHT22;21609;49.298;6.844;2023-02-15T03:23:28;16.60;52.10
35497;DHT22;21609;49.298;6.844;2023-02-15T03:25:59;16.50;52.10
35497;DHT22;21609;49.298;6.844;2023-02-15T03:28:27;16.50;52.10
35497;DHT22;21609;49.298;6.844;2023-02-15T03:30:56;16.50;52.10
35497;DHT22;21609;49.298;6.844;2023-02-15T03:33:23;16.50;52.10
35497;DHT22;21609;49.298;6.844;2023-02-15T03:38:36;16.50;52.00
35497;DHT22;21609;49.298;6.844;2023-02-15T03:41:06;16.50;52.00
35497;DHT22;21609;49.298;6.844;2023-02-15T03:43:41;16.50;51.90
35497;DHT22;21609;49.298;6.844;2023-02-15T03:46:23;16.50;52.00
35497;DHT22;21609;49.298;6.844;2023-02-15T03:49:00;16.50;52.00
35497;DHT22;21609;49.298;6.844;2023-02-15T03:51:30;16.50;52.00
35497;DHT22;21609;49.298;6.844;2023-02-15T03:54:20;16.50;52.10
35497;DHT22;21609;49.298;6.844;2023-02-15T03:57:08;16.40;52.00
35497;DHT22;21609;49.298;6.844;2023-02-15T03:59:53;16.50;52.00
35497;DHT22;21609;49.298;6.844;2023-02-15T04:02:54;16.50;52.00
35497;DHT22;21609;49.298;6.844;2023-02-15T04:05:22;16.40;52.00
35497;DHT22;21609;49.298;6.844;2023-02-15T04:07:47;16.40;52.00
35497;DHT22;21609;49.298;6.844;2023-02-15T04:10:13;16.40;52.00
35497;DHT22;21609;49.298;6.844;2023-02-15T04:12:57;16.40;52.00
35497;DHT22;21609;49.298;6.844;2023-02-15T04:15:23;16.40;52.00
35497;DHT22;21609;49.298;6.844;2023-02-15T04:18:07;16.40;52.00
35497;DHT22;21609;49.298;6.844;2023-02-15T04:20:32;16.40;52.00
35497;DHT22;21609;49.298;6.844;2023-02-15T04:23:16;16.40;52.00
35497;DHT22;21609;49.298;6.844;2023-02-15T04:26:03;16.40;52.10
35497;DHT22;21609;49.298;6.844;2023-02-15T04:28:30;16.40;52.00
35497;DHT22;21609;49.298;6.844;2023-02-15T04:30:55;16.40;52.00
35497;DHT22;21609;49.298;6.844;2023-02-15T04:33:21;16.40;52.00
35497;DHT22;21609;49.298;6.844;2023-02-15T04:35:47;16.40;52.00
35497;DHT22;21609;49.298;6.844;2023-02-15T04:38:12;16.40;52.00
35497;DHT22;21609;49.298;6.844;2023-02-15T04:40:38;16.40;51.90
35497;DHT22;21609;49.298;6.844;2023-02-15T04:43:03;16.40;51.90
35497;DHT22;21609;49.298;6.844;2023-02-15T04:45:29;16.40;51.90
35497;DHT22;21609;49.298;6.844;2023-02-15T04:47:54;16.30;51.90
35497;DHT22;21609;49.298;6.844;2023-02-15T04:50:20;16.30;51.90
35497;DHT22;21609;49.298;6.844;2023-02-15T04:52:46;16.30;51.90
35497;DHT22;21609;49.298;6.844;2023-02-15T04:55:11;16.30;51.90
35497;DHT22;21609;49.298;6.844;2023-02-15T04:57:37;16.40;51.90
35497;DHT22;21609;49.298;6.844;2023-02-15T05:00:03;16.30;51.80
35497;DHT22;21609;49.298;6.844;2023-02-15T05:02:29;16.30;51.80
35497;DHT22;21609;49.298;6.844;2023-02-15T05:04:54;16.30;51.80
35497;DHT22;21609;49.298;6.844;2023-02-15T05:07:20;16.30;51.80
35497;DHT22;21609;49.298;6.844;2023-02-15T05:09:45;16.30;51.80
35497;DHT22;21609;49.298;6.844;2023-02-15T05:12:11;16.30;51.90
35497;DHT22;21609;49.298;6.844;2023-02-15T05:14:36;16.30;51.90
35497;DHT22;21609;49.298;6.844;2023-02-15T05:17:02;16.30;51.80
35497;DHT22;21609;49.298;6.844;2023-02-15T05:19:29;16.30;51.90
35497;DHT22;21609;49.298;6.844;2023-02-15T05:21:54;16.30;51.90
35497;DHT22;21609;49.298;6.844;2023-02-15T05:24:20;16.30;51.80
35497;DHT22;21609;49.298;6.844;2023-02-15T05:27:05;16.30;51.80
35497;DHT22;21609;49.298;6.844;2023-02-15T05:29:49;16.30;51.80
35497;DHT22;21609;49.298;6.844;2023-02-15T05:32:15;16.30;51.70
35497;DHT22;21609;49.298;6.844;2023-02-15T05:34:41;16.20;51.70
35497;DHT22;21609;49.298;6.844;2023-02-15T05:37:06;16.20;51.70
35497;DHT22;21609;49.298;6.844;2023-02-15T05:39:33;16.20;51.70
35497;DHT22;21609;49.298;6.844;2023-02-15T05:41:59;16.20;51.70
35497;DHT22;21609;49.298;6.844;2023-02-15T05:44:25;16.20;51.70
35497;DHT22;21609;49.298;6.844;2023-02-15T05:46:50;16.20;51.70
35497;DHT22;21609;49.298;6.844;2023-02-15T05:49:16;16.20;51.80
35497;DHT22;21609;49.298;6.844;2023-02-15T05:51:41;16.20;51.80
35497;DHT22;21609;49.298;6.844;2023-02-15T05:54:07;16.20;51.80
35497;DHT22;21609;49.298;6.844;2023-02-15T05:56:32;16.20;51.90
35497;DHT22;21609;49.298;6.844;2023-02-15T05:58:58;16.20;51.80
35497;DHT22;21609;49.298;6.844;2023-02-15T06:01:24;16.20;51.80
35497;DHT22;21609;49.298;6.844;2023-02-15T06:03:49;16.20;51.80
35497;DHT22;21609;49.298;6.844;2023-02-15T06:06:15;16.20;51.80
35497;DHT22;21609;49.298;6.844;2023-02-15T06:08:41;16.20;51.90
35497;DHT22;21609;49.298;6.844;2023-02-15T06:11:07;16.20;51.90
35497;DHT22;21609;49.298;6.844;2023-02-15T06:13:34;16.20;51.90
35497;DHT22;21609;49.298;6.844;2023-02-15T06:15:59;16.20;51.90
35497;DHT22;21609;49.298;6.844;2023-02-15T06:18:25;16.20;52.00
35497;DHT22;21609;49.298;6.844;2023-02-15T06:20:50;16.20;51.90
35497;DHT22;21609;49.298;6.844;2023-02-15T06:23:16;16.20;51.90
35497;DHT22;21609;49.298;6.844;2023-02-15T06:25:42;16.10;51.80
35497;DHT22;21609;49.298;6.844;2023-02-15T06:28:07;16.20;51.90
35497;DHT22;21609;49.298;6.844;2023-02-15T06:30:33;16.10;51.90
35497;DHT22;21609;49.298;6.844;2023-02-15T06:32:58;16.10;51.90
35497;DHT22;21609;49.298;6.844;2023-02-15T06:35:24;16.10;51.90
35497;DHT22;21609;49.298;6.844;2023-02-15T06:37:50;16.10;51.90
35497;DHT22;21609;49.298;6.844;2023-02-15T06:40:16;16.10;51.90
35497;DHT22;21609;49.298;6.844;2023-02-15T06:42:42;16.10;51.80
35497;DHT22;21609;49.298;6.844;2023-02-15T06:45:08;16.10;51.80
35497;DHT22;21609;49.298;6.844;2023-02-15T06:47:34;16.10;51.80
35497;DHT22;21609;49.298;6.844;2023-02-15T06:50:00;16.10;51.80
35497;DHT22;21609;49.298;6.844;2023-02-15T06:52:25;16.10;51.90
35497;DHT22;21609;49.298;6.844;2023-02-15T06:54:51;16.10;51.80
35497;DHT22;21609;49.298;6.844;2023-02-15T06:57:16;16.10;51.80
35497;DHT22;21609;49.298;6.844;2023-02-15T06:59:42;16.10;51.90
35497;DHT22;21609;49.298;6.844;2023-02-15T07:02:09;16.10;52.00
35497;DHT22;21609;49.298;6.844;2023-02-15T07:04:36;16.20;51.70
35497;DHT22;21609;49.298;6.844;2023-02-15T07:07:01;16.20;51.80
35497;DHT22;21609;49.298;6.844;2023-02-15T07:09:27;16.10;51.80
35497;DHT22;21609;49.298;6.844;2023-02-15T07:11:52;16.10;51.80
35497;DHT22;21609;49.298;6.844;2023-02-15T07:14:36;16.10;51.80
35497;DHT22;21609;49.298;6.844;2023-02-15T07:17:02;16.10;51.80
35497;DHT22;21609;49.298;6.844;2023-02-15T07:19:27;16.10;51.80
35497;DHT22;21609;49.298;6.844;2023-02-15T07:21:53;16.10;51.90
35497;DHT22;21609;49.298;6.844;2023-02-15T07:24:18;16.10;51.80
35497;DHT22;21609;49.298;6.844;2023-02-15T07:26:44;16.10;51.70
35497;DHT22;21609;49.298;6.844;2023-02-15T07:29:10;16.10;51.90
35497;DHT22;21609;49.298;6.844;2023-02-15T07:31:35;16.10;51.80
35497;DHT22;21609;49.298;6.844;2023-02-15T07:34:01;16.10;51.80
35497;DHT22;21609;49.298;6.844;2023-02-15T07:36:26;16.00;51.80
35497;DHT22;21609;49.298;6.844;2023-02-15T07:38:52;16.10;51.80
35497;DHT22;21609;49.298;6.844;2023-02-15T07:41:17;16.00;51.70
35497;DHT22;21609;49.298;6.844;2023-02-15T07:43:44;16.00;51.70
35497;DHT22;21609;49.298;6.844;2023-02-15T07:46:15;16.00;51.70
35497;DHT22;21609;49.298;6.844;2023-02-15T07:48:42;16.00;51.60
35497;DHT22;21609;49.298;6.844;2023-02-15T07:51:09;16.00;51.70
35497;DHT22;21609;49.298;6.844;2023-02-15T07:53:36;16.00;51.60
35497;DHT22;21609;49.298;6.844;2023-02-15T07:56:04;16.00;51.60
35497;DHT22;21609;49.298;6.844;2023-02-15T07:58:31;16.00;51.60
35497;DHT22;21609;49.298;6.844;2023-02-15T08:01:15;16.00;51.60
35497;DHT22;21609;49.298;6.844;2023-02-15T08:03:41;16.00;51.70
35497;DHT22;21609;49.298;6.844;2023-02-15T08:06:07;16.00;51.70
35497;DHT22;21609;49.298;6.844;2023-02-15T08:08:34;16.00;51.70
35497;DHT22;21609;49.298;6.844;2023-02-15T08:11:06;16.00;51.70
35497;DHT22;21609;49.298;6.844;2023-02-15T08:14:19;15.90;51.70
35497;DHT22;21609;49.298;6.844;2023-02-15T08:16:49;15.90;51.70
35497;DHT22;21609;49.298;6.844;2023-02-15T08:21:48;15.90;51.80
35497;DHT22;21609;49.298;6.844;2023-02-15T08:24:15;15.90;51.80
35497;DHT22;21609;49.298;6.844;2023-02-15T08:26:41;15.90;51.70
35497;DHT22;21609;49.298;6.844;2023-02-15T08:29:08;15.90;51.70
35497;DHT22;21609;49.298;6.844;2023-02-15T08:31:35;15.90;51.70
35497;DHT22;21609;49.298;6.844;2023-02-15T08:34:00;15.90;51.70
35497;DHT22;21609;49.298;6.844;2023-02-15T08:36:28;15.90;51.70
35497;DHT22;21609;49.298;6.844;2023-02-15T08:38:57;15.90;51.70
35497;DHT22;21609;49.298;6.844;2023-02-15T08:41:28;15.90;51.70
35497;DHT22;21609;49.298;6.844;2023-02-15T08:43:57;15.90;51.70
35497;DHT22;21609;49.298;6.844;2023-02-15T08:46:24;15.80;51.70
35497;DHT22;21609;49.298;6.844;2023-02-15T08:48:50;15.90;51.70
35497;DHT22;21609;49.298;6.844;2023-02-15T08:51:21;15.90;51.70
35497;DHT22;21609;49.298;6.844;2023-02-15T08:53:49;15.90;51.70
35497;DHT22;21609;49.298;6.844;2023-02-15T08:56:15;15.90;51.70
35497;DHT22;21609;49.298;6.844;2023-02-15T08:58:42;15.90;51.60
35497;DHT22;21609;49.298;6.844;2023-02-15T09:01:13;15.90;51.70
35497;DHT22;21609;49.298;6.844;2023-02-15T09:03:39;15.90;51.70
35497;DHT22;21609;49.298;6.844;2023-02-15T09:06:05;15.90;51.80
35497;DHT22;21609;49.298;6.844;2023-02-15T09:08:32;15.90;51.80
35497;DHT22;21609;49.298;6.844;2023-02-15T09:11:25;15.90;51.80
35497;DHT22;21609;49.298;6.844;2023-02-15T09:13:56;15.90;51.80
35497;DHT22;21609;49.298;6.844;2023-02-15T09:16:23;15.90;51.80
35497;DHT22;21609;49.298;6.844;2023-02-15T09:18:49;15.90;51.80
35497;DHT22;21609;49.298;6.844;2023-02-15T09:21:18;15.80;51.80
35497;DHT22;21609;49.298;6.844;2023-02-15T09:23:45;15.90;51.80
35497;DHT22;21609;49.298;6.844;2023-02-15T09:26:14;15.90;51.90
35497;DHT22;21609;49.298;6.844;2023-02-15T09:28:40;15.90;51.90
35497;DHT22;21609;49.298;6.844;2023-02-15T09:31:10;15.80;51.90
35497;DHT22;21609;49.298;6.844;2023-02-15T09:33:37;15.80;51.90
35497;DHT22;21609;49.298;6.844;2023-02-15T09:36:04;15.90;52.00
35497;DHT22;21609;49.298;6.844;2023-02-15T09:38:30;15.80;51.90
35497;DHT22;21609;49.298;6.844;2023-02-15T09:43:56;15.80;52.00
35497;DHT22;21609;49.298;6.844;2023-02-15T09:58:03;16.00;51.90
35497;DHT22;21609;49.298;6.844;2023-02-15T10:03:24;16.10;51.90
35497;DHT22;21609;49.298;6.844;2023-02-15T10:08:48;16.30;52.10
35497;DHT22;21609;49.298;6.844;2023-02-15T10:17:05;16.50;52.00
35497;DHT22;21609;49.298;6.844;2023-02-15T10:22:17;16.60;52.50
35497;DHT22;21609;49.298;6.844;2023-02-15T10:27:48;16.70;51.90
35497;DHT22;21609;49.298;6.844;2023-02-15T10:30:15;16.80;51.90
35497;DHT22;21609;49.298;6.844;2023-02-15T10:35:26;16.80;51.70
35497;DHT22;21609;49.298;6.844;2023-02-15T10:41:00;17.00;51.80
35497;DHT22;21609;49.298;6.844;2023-02-15T10:43:47;17.00;51.70
35497;DHT22;21609;49.298;6.844;2023-02-15T10:46:28;17.10;51.60
35497;DHT22;21609;49.298;6.844;2023-02-15T10:49:30;17.20;51.10
35497;DHT22;21609;49.298;6.844;2023-02-15T10:52:25;17.20;51.70
35497;DHT22;21609;49.298;6.844;2023-02-15T10:55:18;17.30;51.50
35497;DHT22;21609;49.298;6.844;2023-02-15T11:06:05;17.60;51.60
35497;DHT22;21609;49.298;6.844;2023-02-15T11:08:40;17.70;51.60
35497;DHT22;21609;49.298;6.844;2023-02-15T11:11:34;17.80;51.70
35497;DHT22;21609;49.298;6.844;2023-02-15T11:14:05;17.80;51.60
35497;DHT22;21609;49.298;6.844;2023-02-15T11:16:40;17.90;51.60
35497;DHT22;21609;49.298;6.844;2023-02-15T11:19:18;18.00;51.70
35497;DHT22;21609;49.298;6.844;2023-02-15T11:21:48;18.00;51.70
35497;DHT22;21609;49.298;6.844;2023-02-15T11:24:18;18.10;51.60
35497;DHT22;21609;49.298;6.844;2023-02-15T11:27:00;18.10;51.60
35497;DHT22;21609;49.298;6.844;2023-02-15T11:29:50;18.20;51.60
35497;DHT22;21609;49.298;6.844;2023-02-15T11:32:21;18.10;51.50
35497;DHT22;21609;49.298;6.844;2023-02-15T11:40:49;18.50;51.30
35497;DHT22;21609;49.298;6.844;2023-02-15T11:43:35;18.50;51.20
35497;DHT22;21609;49.298;6.844;2023-02-15T11:46:02;18.60;51.20
35497;DHT22;21609;49.298;6.844;2023-02-15T11:48:30;18.70;51.20
35497;DHT22;21609;49.298;6.844;2023-02-15T11:50:57;18.70;51.20
35497;DHT22;21609;49.298;6.844;2023-02-15T11:53:23;18.80;51.10
35497;DHT22;21609;49.298;6.844;2023-02-15T11:55:53;18.90;51.10
35497;DHT22;21609;49.298;6.844;2023-02-15T11:58:38;18.90;51.10
35497;DHT22;21609;49.298;6.844;2023-02-15T12:01:18;19.00;51.10
35497;DHT22;21609;49.298;6.844;2023-02-15T12:06:59;19.20;51.10
35497;DHT22;21609;49.298;6.844;2023-02-15T12:09:32;19.20;51.10
35497;DHT22;21609;49.298;6.844;2023-02-15T12:12:19;19.30;51.10
35497;DHT22;21609;49.298;6.844;2023-02-15T12:14:53;19.40;51.00
35497;DHT22;21609;49.298;6.844;2023-02-15T12:17:25;19.50;50.90
35497;DHT22;21609;49.298;6.844;2023-02-15T12:19:54;19.60;50.80
35497;DHT22;21609;49.298;6.844;2023-02-15T12:24:49;19.60;50.70
35497;DHT22;21609;49.298;6.844;2023-02-15T12:27:17;19.70;50.70
35497;DHT22;21609;49.298;6.844;2023-02-15T12:29:47;19.70;50.70
35497;DHT22;21609;49.298;6.844;2023-02-15T12:33:05;19.80;50.60
35497;DHT22;21609;49.298;6.844;2023-02-15T12:35:26;19.70;50.60
35497;DHT22;21609;49.298;6.844;2023-02-15T12:38:21;19.60;50.80
35497;DHT22;21609;49.298;6.844;2023-02-15T12:40:57;19.50;50.70
35497;DHT22;21609;49.298;6.844;2023-02-15T12:43:26;19.90;50.60
35497;DHT22;21609;49.298;6.844;2023-02-15T12:45:52;20.00;50.40
35497;DHT22;21609;49.298;6.844;2023-02-15T12:48:19;20.20;50.30
35497;DHT22;21609;49.298;6.844;2023-02-15T12:50:50;20.30;50.10
35497;DHT22;21609;49.298;6.844;2023-02-15T12:53:17;20.30;50.10
35497;DHT22;21609;49.298;6.844;2023-02-15T12:55:56;20.40;50.00
35497;DHT22;21609;49.298;6.844;2023-02-15T12:58:24;20.40;50.00
35497;DHT22;21609;49.298;6.844;2023-02-15T13:03:38;20.50;49.90
35497;DHT22;21609;49.298;6.844;2023-02-15T13:06:05;20.60;50.00
35497;DHT22;21609;49.298;6.844;2023-02-15T13:08:39;20.60;50.00
35497;DHT22;21609;49.298;6.844;2023-02-15T13:11:11;20.60;50.00
35497;DHT22;21609;49.298;6.844;2023-02-15T13:13:54;20.70;50.00
35497;DHT22;21609;49.298;6.844;2023-02-15T13:16:30;20.70;49.90
35497;DHT22;21609;49.298;6.844;2023-02-15T13:18:57;20.80;49.90
35497;DHT22;21609;49.298;6.844;2023-02-15T13:21:29;20.80;49.90
35497;DHT22;21609;49.298;6.844;2023-02-15T13:24:01;20.90;49.90
35497;DHT22;21609;49.298;6.844;2023-02-15T13:26:31;20.90;49.80
35497;DHT22;21609;49.298;6.844;2023-02-15T13:29:05;21.00;49.80
35497;DHT22;21609;49.298;6.844;2023-02-15T13:31:34;21.00;49.80
35497;DHT22;21609;49.298;6.844;2023-02-15T13:34:12;21.10;49.80
35497;DHT22;21609;49.298;6.844;2023-02-15T13:42:20;21.10;49.50
35497;DHT22;21609;49.298;6.844;2023-02-15T13:50:56;21.10;49.30
35497;DHT22;21609;49.298;6.844;2023-02-15T13:53:35;21.10;49.30
35497;DHT22;21609;49.298;6.844;2023-02-15T13:56:13;21.10;49.50
35497;DHT22;21609;49.298;6.844;2023-02-15T14:01:34;21.10;49.40
35497;DHT22;21609;49.298;6.844;2023-02-15T14:18:17;21.10;49.70
35497;DHT22;21609;49.298;6.844;2023-02-15T14:21:36;21.00;49.70
35497;DHT22;21609;49.298;6.844;2023-02-15T14:31:56;20.80;49.80
35497;DHT22;21609;49.298;6.844;2023-02-15T14:34:38;20.70;49.70
35497;DHT22;21609;49.298;6.844;2023-02-15T14:37:11;20.70;49.70
35497;DHT22;21609;49.298;6.844;2023-02-15T14:39:55;20.70;49.70
35497;DHT22;21609;49.298;6.844;2023-02-15T14:42:53;20.70;49.80
35497;DHT22;21609;49.298;6.844;2023-02-15T14:45:29;20.70;50.00
35497;DHT22;21609;49.298;6.844;2023-02-15T14:48:11;20.70;50.10
35497;DHT22;21609;49.298;6.844;2023-02-15T14:50:41;20.60;50.10
35497;DHT22;21609;49.298;6.844;2023-02-15T14:53:36;20.60;50.20
35497;DHT22;21609;49.298;6.844;2023-02-15T15:01:15;20.50;50.20
35497;DHT22;21609;49.298;6.844;2023-02-15T15:03:50;20.50;50.20
35497;DHT22;21609;49.298;6.844;2023-02-15T15:06:30;20.50;50.30
35497;DHT22;21609;49.298;6.844;2023-02-15T15:11:49;20.40;50.20
35497;DHT22;21609;49.298;6.844;2023-02-15T15:17:01;20.40;50.10
35497;DHT22;21609;49.298;6.844;2023-02-15T15:22:18;20.30;50.20
35497;DHT22;21609;49.298;6.844;2023-02-15T15:49:18;19.80;49.80
35497;DHT22;21609;49.298;6.844;2023-02-15T15:51:45;19.80;49.50
35497;DHT22;21609;49.298;6.844;2023-02-15T15:54:30;19.80;49.90
35497;DHT22;21609;49.298;6.844;2023-02-15T15:56:59;19.70;50.00
35497;DHT22;21609;49.298;6.844;2023-02-15T15:59:26;19.70;50.20
35497;DHT22;21609;49.298;6.844;2023-02-15T16:01:53;19.70;50.20
35497;DHT22;21609;49.298;6.844;2023-02-15T16:04:32;19.60;50.20
35497;DHT22;21609;49.298;6.844;2023-02-15T16:07:41;19.60;50.10
35497;DHT22;21609;49.298;6.844;2023-02-15T16:09:58;19.60;50.20
35497;DHT22;21609;49.298;6.844;2023-02-15T16:12:29;19.50;50.20
35497;DHT22;21609;49.298;6.844;2023-02-15T16:14:56;19.50;50.20
35497;DHT22;21609;49.298;6.844;2023-02-15T16:17:24;19.50;50.30
35497;DHT22;21609;49.298;6.844;2023-02-15T16:19:51;19.40;50.30
35497;DHT22;21609;49.298;6.844;2023-02-15T16:22:23;19.40;50.40
35497;DHT22;21609;49.298;6.844;2023-02-15T16:29:57;19.30;50.60
35497;DHT22;21609;49.298;6.844;2023-02-15T16:32:25;19.20;50.50
35497;DHT22;21609;49.298;6.844;2023-02-15T16:34:56;19.30;50.40
35497;DHT22;21609;49.298;6.844;2023-02-15T16:37:25;19.20;50.60
35497;DHT22;21609;49.298;6.844;2023-02-15T16:39:54;19.20;50.80
35497;DHT22;21609;49.298;6.844;2023-02-15T16:42:20;19.10;50.80
35497;DHT22;21609;49.298;6.844;2023-02-15T16:45:01;19.00;50.80
35497;DHT22;21609;49.298;6.844;2023-02-15T16:47:30;19.00;50.60
35497;DHT22;21609;49.298;6.844;2023-02-15T16:50:00;19.00;50.50
35497;DHT22;21609;49.298;6.844;2023-02-15T16:52:28;19.00;50.60
35497;DHT22;21609;49.298;6.844;2023-02-15T16:54:57;18.90;50.40
35497;DHT22;21609;49.298;6.844;2023-02-15T16:57:30;18.80;50.10
35497;DHT22;21609;49.298;6.844;2023-02-15T17:00:08;18.80;50.40
35497;DHT22;21609;49.298;6.844;2023-02-15T17:02:58;18.70;50.70
35497;DHT22;21609;49.298;6.844;2023-02-15T17:05:31;18.70;50.60
35497;DHT22;21609;49.298;6.844;2023-02-15T17:13:00;18.80;50.20
35497;DHT22;21609;49.298;6.844;2023-02-15T17:15:40;18.70;50.30
35497;DHT22;21609;49.298;6.844;2023-02-15T17:18:12;18.70;50.40
35497;DHT22;21609;49.298;6.844;2023-02-15T17:20:40;18.70;50.50
35497;DHT22;21609;49.298;6.844;2023-02-15T17:23:34;18.60;50.60
35497;DHT22;21609;49.298;6.844;2023-02-15T17:26:10;18.60;50.70
35497;DHT22;21609;49.298;6.844;2023-02-15T17:28:36;18.60;50.80
35497;DHT22;21609;49.298;6.844;2023-02-15T17:31:06;18.60;50.80
35497;DHT22;21609;49.298;6.844;2023-02-15T17:36:12;18.50;50.90
35497;DHT22;21609;49.298;6.844;2023-02-15T17:38:41;18.50;50.90
35497;DHT22;21609;49.298;6.844;2023-02-15T17:41:24;18.50;50.90
35497;DHT22;21609;49.298;6.844;2023-02-15T17:43:50;18.50;50.90
35497;DHT22;21609;49.298;6.844;2023-02-15T17:46:16;18.40;50.90
35497;DHT22;21609;49.298;6.844;2023-02-15T17:48:46;18.50;51.00
35497;DHT22;21609;49.298;6.844;2023-02-15T17:51:13;18.40;51.00
35497;DHT22;21609;49.298;6.844;2023-02-15T17:53:40;18.40;51.00
35497;DHT22;21609;49.298;6.844;2023-02-15T17:56:05;18.40;51.00
35497;DHT22;21609;49.298;6.844;2023-02-15T17:58:38;18.40;51.10
35497;DHT22;21609;49.298;6.844;2023-02-15T18:01:09;18.30;51.10
35497;DHT22;21609;49.298;6.844;2023-02-15T18:03:55;18.40;51.10
35497;DHT22;21609;49.298;6.844;2023-02-15T18:06:41;18.30;51.10
35497;DHT22;21609;49.298;6.844;2023-02-15T18:09:26;18.30;51.00
35497;DHT22;21609;49.298;6.844;2023-02-15T18:12:20;18.30;51.10
35497;DHT22;21609;49.298;6.844;2023-02-15T18:14:47;18.30;51.10
35497;DHT22;21609;49.298;6.844;2023-02-15T18:17:13;18.20;51.20
35497;DHT22;21609;49.298;6.844;2023-02-15T18:19:40;18.20;51.20
35497;DHT22;21609;49.298;6.844;2023-02-15T18:22:11;18.20;51.20
35497;DHT22;21609;49.298;6.844;2023-02-15T18:24:37;18.20;51.20
35497;DHT22;21609;49.298;6.844;2023-02-15T18:27:04;18.20;51.20
35497;DHT22;21609;49.298;6.844;2023-02-15T18:29:30;18.20;51.20
35497;DHT22;21609;49.298;6.844;2023-02-15T18:31:56;18.10;51.20
35497;DHT22;21609;49.298;6.844;2023-02-15T18:36:52;18.10;51.20
35497;DHT22;21609;49.298;6.844;2023-02-15T18:39:27;18.10;51.30
35497;DHT22;21609;49.298;6.844;2023-02-15T18:41:54;18.10;51.30
35497;DHT22;21609;49.298;6.844;2023-02-15T18:44:20;18.00;51.20